Time;durP1;ratioP1;P1;durP2;ratioP2;P2;SDS_P1;SDS_P2;PMS_P1;PMS_P2;Temp;Humidity;BMP_temperature;BMP_pressure;BME280_temperature;BME280_humidity;BME280_pressure;Samples;Min_cycle;Max_cycle;Signal;HPM_P1;HPM_P2
2021/12/13 00:00:52;;;;;;;0.70;0.50;;;5.90;99.90;;;;;;5096919;28;20538;-60
2021/12/13 00:03:30;;;;;;;0.60;0.40;;;5.90;99.90;;;;;;5094872;28;20547;-58
2021/12/13 00:06:01;;;;;;;0.80;0.50;;;5.80;99.90;;;;;;5094443;28;20801;-58
2021/12/13 00:08:31;;;;;;;0.70;0.40;;;5.80;99.90;;;;;;5094621;28;20783;-59
2021/12/13 00:11:07;;;;;;;0.70;0.47;;;5.80;99.90;;;;;;5093898;28;20445;-59
2021/12/13 00:13:40;;;;;;;1.93;0.60;;;5.70;99.90;;;;;;5093552;28;20538;-59
2021/12/13 00:16:09;;;;;;;1.40;0.67;;;5.70;99.90;;;;;;5093909;28;20532;-58
2021/12/13 00:18:42;;;;;;;1.13;0.60;;;5.70;99.90;;;;;;5101631;28;20543;-58
2021/12/13 00:21:14;;;;;;;1.00;0.47;;;5.70;99.90;;;;;;5114506;28;20475;-58
2021/12/13 00:23:51;;;;;;;0.90;0.57;;;5.70;99.90;;;;;;5114844;28;20462;-58
2021/12/13 00:26:25;;;;;;;0.90;0.50;;;5.80;99.90;;;;;;5115421;28;20864;-58
2021/12/13 00:28:52;;;;;;;2.17;0.60;;;5.70;99.90;;;;;;5116000;28;20462;-58
2021/12/13 00:31:34;;;;;;;1.60;0.57;;;5.70;99.90;;;;;;5115718;28;20785;-58
2021/12/13 00:34:19;;;;;;;1.87;0.43;;;5.70;99.90;;;;;;5115602;28;20492;-58
2021/12/13 00:36:50;;;;;;;1.10;0.70;;;5.70;99.90;;;;;;5115472;28;20445;-57
2021/12/13 00:39:21;;;;;;;1.20;0.67;;;5.70;99.90;;;;;;5115413;28;20492;-58
2021/12/13 00:41:50;;;;;;;0.80;0.60;;;5.70;99.90;;;;;;5115907;28;20574;-58
2021/12/13 00:44:21;;;;;;;3.63;0.57;;;5.70;99.90;;;;;;5115680;28;20786;-58
2021/12/13 00:46:52;;;;;;;0.83;0.60;;;5.70;99.90;;;;;;5115365;28;20477;-58
2021/12/13 00:49:27;;;;;;;2.40;0.50;;;5.60;99.90;;;;;;5115045;28;20454;-58
2021/12/13 00:51:57;;;;;;;1.03;0.60;;;5.60;99.90;;;;;;5114287;28;20476;-58
2021/12/13 00:54:27;;;;;;;0.87;0.60;;;5.60;99.90;;;;;;5114536;28;20453;-58
2021/12/13 00:57:38;;;;;;;1.27;0.70;;;5.60;99.90;;;;;;5114594;28;20532;-58
2021/12/13 01:00:13;;;;;;;3.10;0.60;;;5.60;99.90;;;;;;5114297;28;20760;-58
2021/12/13 01:02:42;;;;;;;1.53;0.60;;;5.60;99.90;;;;;;5113583;28;20480;-58
2021/12/13 01:05:19;;;;;;;1.17;0.60;;;5.60;99.90;;;;;;5113737;28;20543;-58
2021/12/13 01:08:12;;;;;;;1.00;0.60;;;5.60;99.90;;;;;;5112586;28;20523;-57
2021/12/13 01:11:11;;;;;;;1.00;0.60;;;5.50;99.90;;;;;;5113081;28;20741;-58
2021/12/13 01:14:07;;;;;;;0.87;0.63;;;5.50;99.90;;;;;;5112168;28;20448;-59
2021/12/13 01:16:54;;;;;;;1.20;0.60;;;5.50;99.90;;;;;;5111156;28;20490;-58
2021/12/13 01:19:35;;;;;;;0.90;0.60;;;5.40;99.90;;;;;;5111245;28;20444;-58
2021/12/13 01:25:38;;;;;;;3.07;0.60;;;5.40;99.90;;;;;;5046351;28;20467;-59
2021/12/13 01:28:10;;;;;;;0.80;0.50;;;5.40;99.90;;;;;;5047299;28;20473;-58
2021/12/13 01:30:47;;;;;;;1.20;0.60;;;5.40;99.90;;;;;;5087921;28;20566;-58
2021/12/13 01:33:16;;;;;;;2.30;0.77;;;5.50;99.90;;;;;;5112518;28;20448;-59
2021/12/13 01:35:45;;;;;;;1.40;0.60;;;5.50;99.90;;;;;;5112271;28;20480;-59
2021/12/13 01:38:18;;;;;;;5.20;0.80;;;5.50;99.90;;;;;;5111347;28;20839;-59
2021/12/13 01:40:48;;;;;;;1.30;0.80;;;5.50;99.90;;;;;;5113168;28;20483;-59
2021/12/13 01:43:20;;;;;;;1.17;0.70;;;5.50;99.90;;;;;;5113968;28;20496;-59
2021/12/13 01:45:50;;;;;;;2.10;0.60;;;5.50;99.90;;;;;;5114217;28;20935;-58
2021/12/13 01:48:23;;;;;;;1.60;0.90;;;5.50;99.90;;;;;;5115904;28;20484;-59
2021/12/13 01:51:03;;;;;;;1.10;0.70;;;5.50;99.90;;;;;;5116667;28;20551;-59
2021/12/13 01:53:39;;;;;;;1.13;0.70;;;5.50;99.90;;;;;;5116733;28;20556;-59
2021/12/13 01:56:23;;;;;;;1.73;0.80;;;5.50;99.90;;;;;;5117388;28;20527;-59
2021/12/13 01:58:51;;;;;;;0.90;0.60;;;5.60;99.90;;;;;;5116712;28;20454;-58
2021/12/13 02:01:22;;;;;;;1.00;0.77;;;5.50;99.90;;;;;;5116728;28;20469;-58
2021/12/13 02:03:55;;;;;;;2.60;0.70;;;5.50;99.90;;;;;;5117163;28;20452;-59
2021/12/13 02:06:36;;;;;;;1.83;0.70;;;5.50;99.90;;;;;;5117401;28;20480;-58
2021/12/13 02:09:08;;;;;;;2.40;0.63;;;5.50;99.90;;;;;;5116857;28;20535;-60
2021/12/13 02:11:38;;;;;;;1.03;0.73;;;5.50;99.90;;;;;;5116321;28;20535;-59
2021/12/13 02:14:15;;;;;;;1.87;0.80;;;5.50;99.90;;;;;;5116532;28;20488;-58
2021/12/13 02:17:08;;;;;;;3.67;0.77;;;5.50;99.90;;;;;;5116195;28;20542;-58
2021/12/13 02:19:43;;;;;;;1.13;0.80;;;5.50;99.90;;;;;;5116124;28;20463;-59
2021/12/13 02:22:35;;;;;;;1.40;0.70;;;5.50;99.90;;;;;;5115748;28;20870;-59
2021/12/13 02:25:09;;;;;;;2.70;0.80;;;5.40;99.90;;;;;;5115828;28;20756;-59
2021/12/13 02:27:40;;;;;;;1.40;0.60;;;5.40;99.90;;;;;;5115601;28;20448;-59
2021/12/13 02:30:13;;;;;;;1.47;0.70;;;5.40;99.90;;;;;;5114334;28;20605;-58
2021/12/13 02:32:42;;;;;;;0.80;0.60;;;5.30;99.90;;;;;;5113867;28;20514;-58
2021/12/13 02:35:10;;;;;;;0.90;0.60;;;5.30;99.90;;;;;;5114174;28;20540;-58
2021/12/13 02:37:42;;;;;;;1.20;0.80;;;5.30;99.90;;;;;;5114463;28;20858;-58
2021/12/13 02:40:10;;;;;;;0.80;0.60;;;5.30;99.90;;;;;;5115974;28;20459;-59
2021/12/13 02:42:38;;;;;;;1.43;0.60;;;5.30;99.90;;;;;;5116764;28;20571;-58
2021/12/13 02:45:13;;;;;;;2.50;0.80;;;5.30;99.90;;;;;;5117823;28;20463;-58
2021/12/13 02:47:48;;;;;;;0.90;0.50;;;5.40;99.90;;;;;;5118438;28;20506;-58
2021/12/13 02:50:19;;;;;;;2.73;0.70;;;5.40;99.90;;;;;;5118270;28;20536;-58
2021/12/13 02:52:47;;;;;;;0.90;0.63;;;5.40;99.90;;;;;;5118167;28;20519;-57
2021/12/13 02:55:20;;;;;;;1.47;0.70;;;5.40;99.90;;;;;;5118132;28;20879;-58
2021/12/13 02:57:54;;;;;;;1.90;0.70;;;5.40;99.90;;;;;;5117683;28;20539;-58
2021/12/13 03:00:25;;;;;;;2.83;0.80;;;5.40;99.90;;;;;;5118040;28;20535;-58
2021/12/13 03:02:58;;;;;;;1.17;0.70;;;5.40;99.90;;;;;;5117247;28;20566;-57
2021/12/13 03:05:32;;;;;;;1.23;0.50;;;5.40;99.90;;;;;;5116608;28;20449;-58
2021/12/13 03:08:07;;;;;;;1.83;0.70;;;5.40;99.90;;;;;;5115486;28;20446;-57
2021/12/13 03:10:38;;;;;;;2.50;0.70;;;5.50;99.90;;;;;;5115008;28;20521;-58
2021/12/13 03:13:06;;;;;;;2.37;0.80;;;5.50;99.90;;;;;;5113118;28;20453;-58
2021/12/13 03:15:34;;;;;;;4.67;1.00;;;5.60;99.90;;;;;;5112250;28;20444;-57
2021/12/13 03:18:10;;;;;;;0.90;0.60;;;5.70;99.90;;;;;;5112127;28;20900;-57
2021/12/13 03:21:08;;;;;;;1.40;0.73;;;5.70;99.90;;;;;;5112238;28;20535;-57
2021/12/13 03:23:59;;;;;;;4.83;0.80;;;5.70;99.90;;;;;;5113225;28;20502;-58
2021/12/13 03:26:44;;;;;;;2.93;1.00;;;5.80;99.90;;;;;;5114180;28;20445;-58
2021/12/13 03:29:19;;;;;;;1.37;0.93;;;5.70;99.90;;;;;;5116716;28;20498;-57
2021/12/13 03:31:53;;;;;;;2.20;0.80;;;5.70;99.90;;;;;;5116775;28;20483;-58
2021/12/13 03:34:31;;;;;;;1.70;0.83;;;5.70;99.90;;;;;;5116414;28;20448;-58
2021/12/13 03:37:02;;;;;;;1.50;0.80;;;5.70;99.90;;;;;;5116784;28;20568;-58
2021/12/13 03:39:34;;;;;;;1.30;0.70;;;5.60;99.90;;;;;;5115870;28;20555;-58
2021/12/13 03:42:05;;;;;;;2.03;0.80;;;5.60;99.90;;;;;;5115049;28;20772;-57
2021/12/13 03:44:35;;;;;;;2.47;0.90;;;5.60;99.90;;;;;;5115882;28;20811;-58
2021/12/13 03:47:10;;;;;;;1.30;0.80;;;5.60;99.90;;;;;;5115263;28;20539;-58
2021/12/13 03:49:43;;;;;;;1.30;0.80;;;5.70;99.90;;;;;;5114693;28;20452;-58
2021/12/13 03:52:12;;;;;;;1.20;0.70;;;5.70;99.90;;;;;;5115169;28;20480;-58
2021/12/13 03:54:42;;;;;;;2.57;0.80;;;5.70;99.90;;;;;;5115140;28;20539;-58
2021/12/13 03:57:12;;;;;;;3.50;0.73;;;5.70;99.90;;;;;;5113760;28;20447;-58
2021/12/13 03:59:42;;;;;;;2.73;0.93;;;5.70;99.90;;;;;;5115445;28;20501;-58
2021/12/13 04:02:14;;;;;;;7.43;0.80;;;5.80;99.90;;;;;;5115650;28;20567;-58
2021/12/13 04:04:45;;;;;;;3.10;0.80;;;5.80;99.90;;;;;;5115099;28;20459;-58
2021/12/13 04:07:16;;;;;;;1.50;0.87;;;5.80;99.90;;;;;;5116237;28;20449;-58
2021/12/13 04:09:48;;;;;;;2.23;0.90;;;5.70;99.90;;;;;;5116665;28;20543;-59
2021/12/13 04:12:16;;;;;;;3.00;0.87;;;5.70;99.90;;;;;;5116707;28;20746;-58
2021/12/13 04:14:50;;;;;;;1.70;0.70;;;5.80;99.90;;;;;;5117335;28;20460;-58
2021/12/13 04:17:35;;;;;;;2.50;0.80;;;5.80;99.90;;;;;;5115368;28;20499;-58
2021/12/13 04:20:06;;;;;;;1.30;0.67;;;5.90;99.90;;;;;;5114304;28;20457;-58
2021/12/13 04:22:41;;;;;;;1.40;0.70;;;5.90;99.90;;;;;;5114194;28;20760;-58
2021/12/13 04:25:13;;;;;;;1.10;0.80;;;5.90;99.90;;;;;;5114247;28;20468;-58
2021/12/13 04:27:48;;;;;;;4.33;0.90;;;5.90;99.90;;;;;;5114411;28;20485;-57
2021/12/13 04:30:21;;;;;;;1.20;0.70;;;6.00;99.90;;;;;;5115441;28;20448;-58
2021/12/13 04:32:50;;;;;;;1.53;0.90;;;6.00;99.90;;;;;;5114964;28;20919;-58
2021/12/13 04:35:17;;;;;;;1.10;0.70;;;6.00;99.90;;;;;;5115610;28;20544;-58
2021/12/13 04:37:47;;;;;;;2.00;0.90;;;6.00;99.90;;;;;;5115460;28;20551;-59
2021/12/13 04:40:19;;;;;;;1.83;0.70;;;6.00;99.90;;;;;;5115546;28;20515;-58
2021/12/13 04:42:50;;;;;;;1.33;0.83;;;6.00;99.90;;;;;;5115965;28;20855;-59
2021/12/13 04:45:19;;;;;;;1.50;0.90;;;6.00;99.90;;;;;;5116251;28;20449;-60
2021/12/13 04:47:53;;;;;;;3.33;0.80;;;6.00;99.90;;;;;;5116258;28;20522;-58
2021/12/13 04:50:23;;;;;;;1.37;0.70;;;6.00;99.90;;;;;;5116702;28;20501;-59
2021/12/13 04:52:51;;;;;;;3.43;0.80;;;5.90;99.90;;;;;;5115952;28;20523;-58
2021/12/13 04:55:24;;;;;;;1.20;0.80;;;5.90;99.90;;;;;;5116037;28;20493;-58
2021/12/13 04:57:54;;;;;;;1.83;0.80;;;5.90;99.90;;;;;;5115205;28;20532;-58
2021/12/13 05:00:25;;;;;;;2.03;0.90;;;5.90;99.90;;;;;;5112747;28;20907;-59
2021/12/13 05:02:58;;;;;;;1.20;0.77;;;5.90;99.90;;;;;;5112921;28;20480;-58
2021/12/13 05:05:27;;;;;;;2.17;0.80;;;5.90;99.90;;;;;;5113585;28;20432;-58
2021/12/13 05:07:55;;;;;;;2.07;0.70;;;5.90;99.90;;;;;;5115781;28;20891;-57
2021/12/13 05:10:25;;;;;;;2.93;0.80;;;6.00;99.90;;;;;;5116245;28;20482;-58
2021/12/13 05:13:01;;;;;;;2.73;0.83;;;6.00;99.90;;;;;;5115940;28;20494;-58
2021/12/13 05:15:29;;;;;;;1.40;0.80;;;6.00;99.90;;;;;;5116182;28;20801;-58
2021/12/13 05:18:00;;;;;;;1.33;0.90;;;6.10;99.90;;;;;;5116002;28;20883;-58
2021/12/13 05:20:30;;;;;;;1.43;0.87;;;6.10;99.90;;;;;;5117264;28;20895;-58
2021/12/13 05:23:04;;;;;;;1.50;0.80;;;6.10;99.90;;;;;;5119567;28;20507;-57
2021/12/13 05:25:35;;;;;;;4.37;0.90;;;6.10;99.90;;;;;;5119720;28;20505;-57
2021/12/13 05:28:08;;;;;;;0.83;0.60;;;6.20;99.90;;;;;;5119181;28;20509;-58
2021/12/13 05:30:42;;;;;;;1.47;1.10;;;6.20;99.90;;;;;;5119564;28;20539;-58
2021/12/13 05:33:11;;;;;;;1.40;0.67;;;6.20;99.90;;;;;;5117668;28;20788;-58
2021/12/13 05:35:43;;;;;;;1.17;0.80;;;6.10;99.90;;;;;;5116719;28;20471;-58
2021/12/13 05:38:28;;;;;;;1.40;0.70;;;6.20;99.90;;;;;;5111639;28;20690;-58
2021/12/13 05:40:59;;;;;;;1.60;0.70;;;6.20;99.90;;;;;;5095840;28;20943;-58
2021/12/13 05:43:33;;;;;;;2.27;0.80;;;6.10;99.90;;;;;;5096221;28;20584;-57
2021/12/13 05:46:03;;;;;;;1.17;0.73;;;6.10;99.90;;;;;;5097046;28;20520;-57
2021/12/13 05:48:47;;;;;;;1.17;0.70;;;6.10;99.90;;;;;;5096421;28;20537;-58
2021/12/13 05:51:27;;;;;;;1.47;0.60;;;6.10;99.90;;;;;;5090853;28;20523;-57
2021/12/13 05:53:59;;;;;;;2.83;1.00;;;6.20;99.90;;;;;;5096401;28;20818;-57
2021/12/13 05:56:34;;;;;;;3.30;0.80;;;6.20;99.90;;;;;;5096173;28;20544;-58
2021/12/13 05:59:12;;;;;;;2.13;0.70;;;6.30;99.90;;;;;;5096913;28;20559;-60
2021/12/13 06:01:55;;;;;;;1.80;0.87;;;6.30;99.90;;;;;;5096172;28;20468;-58
2021/12/13 06:04:31;;;;;;;1.20;0.70;;;6.30;99.90;;;;;;5096398;28;20773;-57
2021/12/13 06:06:58;;;;;;;1.70;0.70;;;6.30;99.90;;;;;;5096602;28;20437;-57
2021/12/13 06:09:45;;;;;;;1.40;0.73;;;6.40;99.90;;;;;;5097303;28;20548;-57
2021/12/13 06:12:16;;;;;;;1.70;0.80;;;6.40;99.90;;;;;;5096974;28;20452;-59
2021/12/13 06:14:44;;;;;;;2.40;0.80;;;6.40;99.90;;;;;;5097221;28;20453;-58
2021/12/13 06:17:17;;;;;;;1.60;0.77;;;6.40;99.90;;;;;;5096267;28;20446;-58
2021/12/13 06:19:55;;;;;;;1.37;0.70;;;6.40;99.90;;;;;;5095971;28;20878;-59
2021/12/13 06:22:25;;;;;;;1.17;0.80;;;6.40;99.90;;;;;;5096860;28;20468;-59
2021/12/13 06:24:56;;;;;;;1.47;0.80;;;6.40;99.90;;;;;;5096199;28;20453;-59
2021/12/13 06:27:27;;;;;;;1.50;0.80;;;6.30;99.90;;;;;;5094564;28;20477;-59
2021/12/13 06:30:03;;;;;;;1.50;0.90;;;6.30;99.90;;;;;;5095651;28;20489;-59
2021/12/13 06:32:49;;;;;;;1.20;0.70;;;6.30;99.90;;;;;;5094644;28;20872;-58
2021/12/13 06:35:43;;;;;;;1.60;0.80;;;6.30;99.90;;;;;;5095128;28;20580;-59
2021/12/13 06:38:41;;;;;;;2.20;0.80;;;6.20;99.90;;;;;;5106983;28;20515;-59
2021/12/13 06:41:38;;;;;;;1.53;0.80;;;6.20;99.90;;;;;;5115486;28;20566;-58
2021/12/13 06:44:10;;;;;;;7.70;0.90;;;6.20;99.90;;;;;;5095694;28;20494;-58
2021/12/13 06:46:49;;;;;;;1.23;0.80;;;6.30;99.90;;;;;;5073266;28;20511;-59
2021/12/13 06:49:22;;;;;;;1.53;0.80;;;6.30;99.90;;;;;;5073311;28;20493;-59
2021/12/13 06:51:55;;;;;;;1.40;0.80;;;6.20;99.90;;;;;;5108051;28;20445;-58
2021/12/13 06:54:31;;;;;;;1.50;0.90;;;6.20;99.90;;;;;;5113304;28;20456;-59
2021/12/13 06:57:01;;;;;;;1.83;0.97;;;6.20;99.90;;;;;;5112422;28;20744;-58
2021/12/13 06:59:33;;;;;;;7.10;0.93;;;6.20;99.90;;;;;;5115051;28;20484;-58
2021/12/13 07:02:06;;;;;;;1.90;0.90;;;6.20;99.90;;;;;;5114125;28;20972;-58
2021/12/13 07:04:55;;;;;;;6.80;2.10;;;6.20;99.90;;;;;;5091919;28;20523;-57
2021/12/13 07:07:25;;;;;;;4.10;1.40;;;6.20;99.90;;;;;;5092435;28;20484;-57
2021/12/13 07:09:55;;;;;;;5.30;1.50;;;6.30;99.90;;;;;;5093581;28;20888;-58
2021/12/13 07:12:24;;;;;;;1.77;1.00;;;6.30;99.90;;;;;;5089159;28;20453;-58
2021/12/13 07:14:52;;;;;;;1.00;0.70;;;6.40;99.90;;;;;;5091488;28;20548;-57
2021/12/13 07:17:22;;;;;;;3.60;1.20;;;6.70;99.90;;;;;;5093460;28;20443;-57
2021/12/13 07:19:51;;;;;;;2.53;1.00;;;6.70;99.90;;;;;;5099694;28;20480;-58
2021/12/13 07:22:23;;;;;;;3.07;1.00;;;6.70;99.90;;;;;;5082060;28;20545;-58
2021/12/13 07:24:52;;;;;;;1.57;0.90;;;6.70;99.90;;;;;;5088692;28;20564;-59
2021/12/13 07:27:24;;;;;;;3.47;1.00;;;6.60;99.90;;;;;;5089290;28;20515;-58
2021/12/13 07:29:56;;;;;;;2.20;1.03;;;6.70;99.90;;;;;;5086823;28;20556;-58
2021/12/13 07:32:27;;;;;;;2.17;1.20;;;6.70;99.90;;;;;;5103211;28;20802;-58
2021/12/13 07:35:03;;;;;;;3.53;1.07;;;6.80;99.90;;;;;;5094526;28;20768;-58
2021/12/13 07:37:43;;;;;;;2.30;1.00;;;6.80;99.90;;;;;;5085996;28;20496;-59
2021/12/13 07:40:41;;;;;;;1.90;0.90;;;7.00;99.90;;;;;;5112166;28;20816;-59
2021/12/13 07:43:21;;;;;;;2.47;0.87;;;7.00;99.90;;;;;;5110750;28;20583;-59
2021/12/13 07:45:57;;;;;;;2.17;1.00;;;6.90;99.90;;;;;;5111638;28;20517;-59
2021/12/13 07:48:26;;;;;;;3.57;1.10;;;6.90;99.90;;;;;;5108205;28;21072;-59
2021/12/13 07:51:09;;;;;;;1.60;0.80;;;6.80;99.90;;;;;;5108151;28;20619;-59
2021/12/13 07:53:41;;;;;;;3.13;2.10;;;6.70;99.90;;;;;;5108465;28;20859;-59
2021/12/13 07:56:10;;;;;;;2.87;1.70;;;6.70;99.90;;;;;;5104839;28;20506;-59
2021/12/13 07:58:40;;;;;;;3.80;1.30;;;6.60;99.90;;;;;;5108879;28;20440;-59
2021/12/13 08:01:13;;;;;;;2.70;1.30;;;6.60;99.90;;;;;;5108549;28;20531;-61
2021/12/13 08:03:56;;;;;;;2.77;1.17;;;6.70;99.90;;;;;;5109187;28;20563;-59
2021/12/13 08:06:26;;;;;;;2.60;1.40;;;6.60;99.90;;;;;;5110773;28;21260;-58
2021/12/13 08:08:58;;;;;;;3.17;1.07;;;6.60;99.90;;;;;;5104101;28;20452;-58
2021/12/13 08:11:43;;;;;;;4.63;1.60;;;6.70;99.90;;;;;;5109277;28;20436;-58
2021/12/13 08:14:11;;;;;;;11.43;1.53;;;6.70;99.90;;;;;;5106357;28;20806;-58
2021/12/13 08:16:43;;;;;;;3.40;1.40;;;6.60;99.90;;;;;;5104366;28;20539;-58
2021/12/13 08:19:15;;;;;;;3.20;1.30;;;6.50;99.90;;;;;;5108838;28;20575;-61
2021/12/13 08:21:46;;;;;;;3.00;1.10;;;6.60;99.90;;;;;;5109106;28;20445;-61
2021/12/13 08:24:28;;;;;;;4.95;1.90;;;6.80;99.90;;;;;;5110009;28;20541;-57
2021/12/13 08:27:03;;;;;;;3.30;1.63;;;7.40;99.90;;;;;;5111611;28;20559;-56
2021/12/13 08:29:33;;;;;;;2.03;1.10;;;7.60;99.90;;;;;;5108493;28;20854;-56
2021/12/13 08:32:07;;;;;;;3.17;1.13;;;7.70;99.90;;;;;;5111043;28;20848;-58
2021/12/13 08:34:37;;;;;;;3.27;1.63;;;7.60;99.90;;;;;;5113693;28;20859;-55
2021/12/13 08:37:17;;;;;;;4.60;1.67;;;7.60;99.90;;;;;;5112204;28;20527;-56
2021/12/13 08:39:46;;;;;;;2.30;1.40;;;7.70;99.90;;;;;;5112487;28;20473;-57
2021/12/13 08:42:18;;;;;;;3.10;1.30;;;7.80;99.90;;;;;;5109674;28;20437;-55
2021/12/13 08:44:55;;;;;;;6.07;1.93;;;7.90;99.90;;;;;;5107731;28;20519;-57
2021/12/13 08:47:29;;;;;;;3.63;1.30;;;8.00;99.90;;;;;;5110600;28;20522;-56
2021/12/13 08:50:03;;;;;;;7.93;1.70;;;8.00;99.90;;;;;;5109631;28;20499;-59
2021/12/13 08:52:34;;;;;;;3.30;1.53;;;7.70;99.90;;;;;;5105714;28;20751;-59
2021/12/13 08:55:06;;;;;;;2.17;1.20;;;7.50;99.90;;;;;;5106361;28;20555;-58
2021/12/13 08:57:45;;;;;;;5.50;1.70;;;7.50;99.90;;;;;;5112896;28;20519;-58
2021/12/13 09:00:45;;;;;;;2.07;1.20;;;7.40;99.90;;;;;;5111379;27;20525;-57
2021/12/13 09:03:22;;;;;;;2.97;1.30;;;7.40;99.90;;;;;;5112732;28;20915;-59
2021/12/13 09:06:21;;;;;;;2.07;1.03;;;7.40;99.90;;;;;;5112858;28;20440;-56
2021/12/13 09:08:52;;;;;;;4.17;1.43;;;7.40;99.90;;;;;;5115446;28;20451;-57
2021/12/13 09:11:26;;;;;;;4.00;1.57;;;7.40;99.90;;;;;;5115832;28;20543;-59
2021/12/13 09:14:10;;;;;;;5.27;2.20;;;7.50;99.90;;;;;;5116128;28;20561;-58
2021/12/13 09:16:50;;;;;;;4.43;1.93;;;7.50;99.90;;;;;;5114084;28;20445;-57
2021/12/13 09:19:22;;;;;;;11.53;2.10;;;7.50;99.90;;;;;;5115786;28;20471;-58
2021/12/13 09:21:55;;;;;;;3.30;1.67;;;7.60;99.90;;;;;;5115790;28;20958;-58
2021/12/13 09:24:40;;;;;;;5.53;2.53;;;7.60;99.90;;;;;;5114926;28;20579;-57
2021/12/13 09:27:18;;;;;;;6.50;2.33;;;7.60;99.90;;;;;;5113434;28;20531;-60
2021/12/13 09:29:56;;;;;;;3.40;1.67;;;7.60;99.90;;;;;;5113547;28;20544;-59
2021/12/13 09:32:25;;;;;;;3.80;2.33;;;7.60;99.90;;;;;;5112842;28;20477;-55
2021/12/13 09:34:56;;;;;;;4.27;1.97;;;7.60;99.90;;;;;;5111876;28;20940;-55
2021/12/13 09:37:36;;;;;;;5.00;2.00;;;7.70;99.90;;;;;;5110824;28;20500;-58
2021/12/13 09:40:08;;;;;;;6.73;2.03;;;7.70;99.90;;;;;;5105213;28;20810;-59
2021/12/13 09:42:45;;;;;;;5.40;2.43;;;7.70;99.90;;;;;;5109639;28;20815;-59
2021/12/13 09:45:25;;;;;;;4.00;2.00;;;7.70;99.90;;;;;;5112047;27;20835;-59
2021/12/13 09:47:53;;;;;;;3.50;1.40;;;7.80;99.90;;;;;;5115186;28;20916;-59
2021/12/13 09:50:26;;;;;;;3.80;1.10;;;7.80;99.90;;;;;;5116349;28;20453;-59
2021/12/13 09:52:58;;;;;;;1.57;0.90;;;7.80;99.90;;;;;;5114747;28;20762;-59
2021/12/13 09:55:31;;;;;;;5.93;1.60;;;7.90;99.90;;;;;;5113923;28;20475;-59
2021/12/13 09:58:04;;;;;;;2.73;1.33;;;7.90;99.90;;;;;;5108968;27;20520;-59
2021/12/13 10:00:35;;;;;;;3.67;1.20;;;8.00;99.90;;;;;;5133209;27;20489;-59
2021/12/13 10:03:07;;;;;;;6.23;1.60;;;8.00;99.90;;;;;;5117703;28;20452;-58
2021/12/13 10:05:40;;;;;;;3.50;1.30;;;8.10;99.90;;;;;;5114577;28;21017;-59
2021/12/13 10:08:13;;;;;;;1.87;1.23;;;8.10;99.90;;;;;;5115576;28;20836;-58
2021/12/13 10:10:43;;;;;;;2.30;1.50;;;8.10;99.90;;;;;;5114649;28;20484;-59
2021/12/13 10:13:14;;;;;;;3.50;1.47;;;8.20;99.90;;;;;;5113086;28;20539;-58
2021/12/13 10:15:52;;;;;;;5.30;1.30;;;8.30;99.90;;;;;;5115585;28;20464;-57
2021/12/13 10:18:23;;;;;;;3.33;1.10;;;8.30;99.90;;;;;;5113916;28;20444;-59
2021/12/13 10:20:56;;;;;;;4.50;0.90;;;8.30;99.90;;;;;;5112829;28;20500;-59
2021/12/13 10:23:27;;;;;;;3.43;1.10;;;8.30;99.90;;;;;;5116168;28;20513;-59
2021/12/13 10:25:59;;;;;;;1.50;1.07;;;8.40;99.90;;;;;;5115300;28;20494;-59
2021/12/13 10:28:29;;;;;;;2.43;1.00;;;8.40;99.90;;;;;;5112099;28;20456;-59
2021/12/13 10:31:02;;;;;;;2.07;0.90;;;8.50;99.90;;;;;;5100517;28;20534;-59
2021/12/13 10:33:31;;;;;;;1.23;0.77;;;8.50;99.90;;;;;;5118357;27;20556;-57
2021/12/13 10:36:02;;;;;;;2.20;1.00;;;8.60;99.90;;;;;;5115803;28;20440;-58
2021/12/13 10:38:32;;;;;;;0.87;0.67;;;8.60;99.90;;;;;;5112122;28;20487;-59
2021/12/13 10:41:08;;;;;;;1.20;0.60;;;8.60;99.90;;;;;;5115264;28;20448;-58
2021/12/13 10:43:39;;;;;;;1.60;0.70;;;8.60;99.90;;;;;;5116926;28;20452;-59
2021/12/13 10:46:12;;;;;;;1.60;0.80;;;8.60;99.90;;;;;;5114998;28;20467;-58
2021/12/13 10:48:45;;;;;;;1.80;0.80;;;8.60;99.90;;;;;;5113549;28;20460;-58
2021/12/13 10:51:16;;;;;;;2.07;0.70;;;8.60;99.90;;;;;;5113477;28;20946;-58
2021/12/13 10:53:48;;;;;;;3.63;0.80;;;8.80;99.90;;;;;;5118799;27;20491;-58
2021/12/13 10:56:26;;;;;;;3.77;0.90;;;8.80;99.90;;;;;;5114450;27;21020;-57
2021/12/13 10:58:56;;;;;;;1.03;0.60;;;8.90;99.90;;;;;;5106123;28;20480;-57
2021/12/13 11:01:25;;;;;;;3.70;1.33;;;9.00;99.90;;;;;;5111778;28;20556;-58
2021/12/13 11:03:58;;;;;;;2.50;1.20;;;9.00;99.90;;;;;;5111375;27;20535;-59
2021/12/13 11:06:35;;;;;;;2.80;0.90;;;9.00;99.90;;;;;;5112322;28;20531;-59
2021/12/13 11:09:04;;;;;;;2.33;0.90;;;8.90;99.90;;;;;;5114534;27;20888;-59
2021/12/13 11:11:34;;;;;;;1.47;0.90;;;8.90;99.90;;;;;;5109386;28;20527;-59
2021/12/13 11:14:05;;;;;;;5.30;1.10;;;9.00;99.90;;;;;;5113489;28;20484;-58
2021/12/13 11:16:35;;;;;;;1.20;0.63;;;8.90;99.90;;;;;;5111810;28;20436;-58
2021/12/13 11:19:04;;;;;;;3.47;0.73;;;8.90;99.90;;;;;;5092895;28;20475;-59
2021/12/13 11:21:36;;;;;;;2.33;0.73;;;8.90;99.90;;;;;;5108000;28;20496;-59
2021/12/13 11:24:06;;;;;;;2.47;0.70;;;9.00;99.90;;;;;;5106811;28;20484;-59
2021/12/13 11:26:38;;;;;;;1.13;0.80;;;9.00;99.90;;;;;;5107997;28;20444;-59
2021/12/13 11:29:07;;;;;;;2.43;0.70;;;9.10;99.90;;;;;;5112063;28;20449;-59
2021/12/13 11:35:25;;;;;;;1.30;0.60;;;9.20;99.90;;;;;;5072123;28;20473;-59
2021/12/13 11:38:16;;;;;;;1.87;0.80;;;9.30;99.90;;;;;;5085262;28;20505;-59
2021/12/13 11:41:22;;;;;;;1.50;0.63;;;9.30;99.90;;;;;;5072645;28;20450;-58
2021/12/13 11:44:13;;;;;;;1.40;0.73;;;9.20;99.90;;;;;;5031502;28;20445;-59
2021/12/13 11:47:26;;;;;;;1.60;0.70;;;9.10;99.90;;;;;;5090312;28;20595;-59
2021/12/13 11:50:28;;;;;;;1.57;0.63;;;9.10;99.90;;;;;;5060865;28;20446;-58
2021/12/13 11:53:38;;;;;;;1.10;0.60;;;9.20;99.90;;;;;;5090257;28;20549;-59
2021/12/13 11:56:24;;;;;;;2.20;0.80;;;9.10;99.90;;;;;;5083759;28;20461;-59
2021/12/13 11:59:26;;;;;;;1.13;0.67;;;9.10;99.90;;;;;;5092525;28;20434;-59
2021/12/13 12:02:05;;;;;;;1.40;0.73;;;9.20;99.90;;;;;;5063558;28;20725;-60
2021/12/13 12:05:19;;;;;;;1.97;0.77;;;9.30;99.90;;;;;;5092721;28;20571;-60
2021/12/13 12:08:23;;;;;;;1.37;0.70;;;9.30;99.90;;;;;;5082215;28;20442;-59
2021/12/13 12:11:35;;;;;;;1.10;0.60;;;9.20;99.90;;;;;;5094032;28;20532;-57
2021/12/13 12:14:11;;;;;;;1.03;0.40;;;9.30;99.90;;;;;;5075016;28;20456;-57
2021/12/13 12:16:43;;;;;;;0.50;0.40;;;9.30;99.90;;;;;;5088396;28;20804;-57
2021/12/13 12:19:15;;;;;;;1.10;0.50;;;9.10;99.90;;;;;;5072629;28;20437;-57
2021/12/13 12:21:51;;;;;;;1.10;0.50;;;9.20;99.90;;;;;;5091759;28;20528;-56
2021/12/13 12:24:21;;;;;;;1.23;0.50;;;9.20;99.90;;;;;;5092298;28;20439;-57
2021/12/13 12:26:57;;;;;;;1.40;0.70;;;9.40;99.90;;;;;;5090859;28;20489;-58
2021/12/13 12:29:29;;;;;;;1.80;1.10;;;9.40;99.90;;;;;;5091901;28;20453;-58
2021/12/13 12:32:02;;;;;;;2.53;1.30;;;9.40;99.90;;;;;;5091680;28;20676;-59
2021/12/13 12:34:30;;;;;;;2.40;0.80;;;9.40;99.90;;;;;;5090722;28;20570;-58
2021/12/13 12:37:43;;;;;;;4.13;1.70;;;9.40;99.90;;;;;;5086104;28;20817;-57
2021/12/13 12:40:26;;;;;;;4.83;1.30;;;9.50;99.90;;;;;;5093932;28;20455;-58
2021/12/13 12:42:55;;;;;;;9.63;1.70;;;9.50;99.90;;;;;;5106137;28;21136;-59
2021/12/13 12:45:29;;;;;;;4.53;1.30;;;9.50;99.90;;;;;;5110039;28;21004;-59
2021/12/13 12:48:12;;;;;;;1.83;1.30;;;9.50;99.90;;;;;;5108150;28;20440;-60
2021/12/13 12:50:45;;;;;;;3.50;1.10;;;9.40;99.90;;;;;;5101571;28;20548;-60
2021/12/13 12:53:15;;;;;;;2.93;1.50;;;9.40;99.90;;;;;;5110452;28;20936;-59
2021/12/13 12:55:46;;;;;;;3.40;1.57;;;9.50;99.90;;;;;;5111926;28;20483;-60
2021/12/13 12:58:16;;;;;;;3.13;1.40;;;9.60;99.90;;;;;;5112326;28;20487;-59
2021/12/13 13:00:46;;;;;;;5.73;1.63;;;9.60;99.90;;;;;;5112071;28;20499;-59
2021/12/13 13:03:26;;;;;;;3.07;1.33;;;9.60;99.90;;;;;;5109159;28;20763;-59
2021/12/13 13:06:03;;;;;;;3.00;1.57;;;9.70;99.90;;;;;;5110829;28;20622;-59
2021/12/13 13:08:32;;;;;;;3.30;1.50;;;10.00;99.90;;;;;;5109945;28;20818;-59
2021/12/13 13:13:45;;;;;;;4.43;1.50;;;10.10;99.90;;;;;;5110629;28;20436;-59
2021/12/13 13:16:16;;;;;;;6.23;1.60;;;10.00;99.90;;;;;;5109001;28;20456;-60
2021/12/13 13:18:43;;;;;;;6.00;1.70;;;9.90;99.90;;;;;;5108625;28;20853;-60
2021/12/13 13:21:11;;;;;;;2.73;1.63;;;9.80;99.90;;;;;;5111225;28;20452;-60
2021/12/13 13:23:40;;;;;;;4.27;1.40;;;9.60;99.90;;;;;;5112194;28;20815;-60
2021/12/13 13:26:11;;;;;;;3.57;1.20;;;9.50;99.90;;;;;;5109051;28;20872;-59
2021/12/13 13:28:41;;;;;;;2.33;1.00;;;9.40;99.90;;;;;;5108066;28;20480;-59
2021/12/13 13:31:13;;;;;;;2.30;1.30;;;9.50;99.90;;;;;;5111443;28;20583;-61
2021/12/13 13:33:45;;;;;;;2.50;1.03;;;9.60;99.90;;;;;;5110254;28;20927;-61
2021/12/13 13:36:18;;;;;;;5.07;1.90;;;9.70;99.90;;;;;;5109297;28;20505;-61
2021/12/13 13:38:45;;;;;;;4.03;1.30;;;9.80;99.90;;;;;;5110356;28;20560;-60
2021/12/13 13:41:20;;;;;;;4.53;1.43;;;9.70;99.90;;;;;;5110924;28;20487;-60
2021/12/13 13:43:49;;;;;;;7.53;3.03;;;9.60;99.90;;;;;;5115350;28;20908;-60
2021/12/13 13:46:19;;;;;;;2.20;1.10;;;9.50;99.90;;;;;;5113279;28;20587;-61
2021/12/13 13:48:48;;;;;;;3.10;1.17;;;9.40;99.90;;;;;;5113836;28;20840;-62